sensor_id;sensor_type;location;lat;lon;timestamp;P1;durP1;ratioP1;P2;durP2;ratioP2
49223;SDS011;35050;51.316;5.994;2022-08-25T00:01:24;1.00;;;0.90;;
49223;SDS011;35050;51.316;5.994;2022-08-25T00:03:52;0.88;;;0.88;;
49223;SDS011;35050;51.316;5.994;2022-08-25T00:06:19;3.50;;;1.20;;
49223;SDS011;35050;51.316;5.994;2022-08-25T00:08:45;1.67;;;1.17;;
49223;SDS011;35050;51.316;5.994;2022-08-25T00:11:14;2.35;;;1.20;;
49223;SDS011;35050;51.316;5.994;2022-08-25T00:13:46;1.77;;;1.27;;
49223;SDS011;35050;51.316;5.994;2022-08-25T00:16:15;1.48;;;1.30;;
49223;SDS011;35050;51.316;5.994;2022-08-25T00:18:42;1.92;;;1.10;;
49223;SDS011;35050;51.316;5.994;2022-08-25T00:21:10;1.77;;;1.30;;
49223;SDS011;35050;51.316;5.994;2022-08-25T00:23:37;1.15;;;1.02;;
49223;SDS011;35050;51.316;5.994;2022-08-25T00:26:03;1.70;;;1.30;;
49223;SDS011;35050;51.316;5.994;2022-08-25T00:28:29;1.17;;;1.02;;
49223;SDS011;35050;51.316;5.994;2022-08-25T00:30:55;4.25;;;1.30;;
49223;SDS011;35050;51.316;5.994;2022-08-25T00:33:21;1.25;;;1.15;;
49223;SDS011;35050;51.316;5.994;2022-08-25T00:35:46;1.50;;;1.40;;
49223;SDS011;35050;51.316;5.994;2022-08-25T00:38:12;2.42;;;1.30;;
49223;SDS011;35050;51.316;5.994;2022-08-25T00:40:38;1.95;;;1.15;;
49223;SDS011;35050;51.316;5.994;2022-08-25T00:43:05;1.40;;;1.30;;
49223;SDS011;35050;51.316;5.994;2022-08-25T00:45:32;1.55;;;1.15;;
49223;SDS011;35050;51.316;5.994;2022-08-25T00:47:58;1.25;;;1.10;;
49223;SDS011;35050;51.316;5.994;2022-08-25T00:50:25;1.88;;;1.13;;
49223;SDS011;35050;51.316;5.994;2022-08-25T00:52:52;1.60;;;1.25;;
49223;SDS011;35050;51.316;5.994;2022-08-25T00:55:22;1.45;;;1.17;;
49223;SDS011;35050;51.316;5.994;2022-08-25T00:57:53;1.50;;;1.23;;
49223;SDS011;35050;51.316;5.994;2022-08-25T01:00:27;2.08;;;1.38;;
49223;SDS011;35050;51.316;5.994;2022-08-25T01:03:02;1.20;;;1.05;;
49223;SDS011;35050;51.316;5.994;2022-08-25T01:05:29;1.98;;;1.20;;
49223;SDS011;35050;51.316;5.994;2022-08-25T01:07:55;1.77;;;1.27;;
49223;SDS011;35050;51.316;5.994;2022-08-25T01:10:23;1.73;;;1.10;;
49223;SDS011;35050;51.316;5.994;2022-08-25T01:12:50;1.30;;;1.20;;
49223;SDS011;35050;51.316;5.994;2022-08-25T01:15:19;1.60;;;1.38;;
49223;SDS011;35050;51.316;5.994;2022-08-25T01:17:50;1.65;;;1.55;;
49223;SDS011;35050;51.316;5.994;2022-08-25T01:20:19;3.35;;;1.38;;
49223;SDS011;35050;51.316;5.994;2022-08-25T01:22:48;2.00;;;1.55;;
49223;SDS011;35050;51.316;5.994;2022-08-25T01:27:47;2.05;;;1.20;;
49223;SDS011;35050;51.316;5.994;2022-08-25T01:30:13;1.20;;;1.10;;
49223;SDS011;35050;51.316;5.994;2022-08-25T01:32:39;2.95;;;1.40;;
49223;SDS011;35050;51.316;5.994;2022-08-25T01:35:05;2.13;;;1.00;;
49223;SDS011;35050;51.316;5.994;2022-08-25T01:37:32;1.25;;;1.05;;
49223;SDS011;35050;51.316;5.994;2022-08-25T01:39:59;1.55;;;1.38;;
49223;SDS011;35050;51.316;5.994;2022-08-25T01:42:32;1.00;;;1.00;;
49223;SDS011;35050;51.316;5.994;2022-08-25T01:45:01;2.65;;;1.15;;
49223;SDS011;35050;51.316;5.994;2022-08-25T01:47:28;1.50;;;1.15;;
49223;SDS011;35050;51.316;5.994;2022-08-25T01:49:54;1.40;;;1.30;;
49223;SDS011;35050;51.316;5.994;2022-08-25T01:52:22;1.35;;;1.15;;
49223;SDS011;35050;51.316;5.994;2022-08-25T01:54:52;1.67;;;1.30;;
49223;SDS011;35050;51.316;5.994;2022-08-25T01:57:17;1.20;;;1.10;;
49223;SDS011;35050;51.316;5.994;2022-08-25T01:59:43;2.15;;;1.00;;
49223;SDS011;35050;51.316;5.994;2022-08-25T02:02:09;1.77;;;1.20;;
49223;SDS011;35050;51.316;5.994;2022-08-25T02:04:35;2.20;;;1.30;;
49223;SDS011;35050;51.316;5.994;2022-08-25T02:07:02;1.63;;;1.20;;
49223;SDS011;35050;51.316;5.994;2022-08-25T02:09:30;1.45;;;1.02;;
49223;SDS011;35050;51.316;5.994;2022-08-25T02:11:56;1.30;;;1.10;;
49223;SDS011;35050;51.316;5.994;2022-08-25T02:14:23;1.65;;;1.17;;
49223;SDS011;35050;51.316;5.994;2022-08-25T02:16:49;1.20;;;1.08;;
49223;SDS011;35050;51.316;5.994;2022-08-25T02:19:16;1.83;;;1.10;;
49223;SDS011;35050;51.316;5.994;2022-08-25T02:21:43;2.88;;;1.60;;
49223;SDS011;35050;51.316;5.994;2022-08-25T02:24:09;1.33;;;1.15;;
49223;SDS011;35050;51.316;5.994;2022-08-25T02:26:36;2.80;;;1.40;;
49223;SDS011;35050;51.316;5.994;2022-08-25T02:29:03;2.53;;;1.02;;
49223;SDS011;35050;51.316;5.994;2022-08-25T02:31:29;1.95;;;1.08;;
49223;SDS011;35050;51.316;5.994;2022-08-25T02:33:55;1.23;;;1.10;;
49223;SDS011;35050;51.316;5.994;2022-08-25T02:36:21;2.00;;;1.08;;
49223;SDS011;35050;51.316;5.994;2022-08-25T02:38:47;1.30;;;1.17;;
49223;SDS011;35050;51.316;5.994;2022-08-25T02:41:15;1.20;;;1.10;;
49223;SDS011;35050;51.316;5.994;2022-08-25T02:43:43;1.45;;;0.93;;
49223;SDS011;35050;51.316;5.994;2022-08-25T02:46:11;2.15;;;1.25;;
49223;SDS011;35050;51.316;5.994;2022-08-25T02:48:37;2.28;;;1.05;;
49223;SDS011;35050;51.316;5.994;2022-08-25T02:51:04;1.70;;;1.27;;
49223;SDS011;35050;51.316;5.994;2022-08-25T02:53:31;3.80;;;1.30;;
49223;SDS011;35050;51.316;5.994;2022-08-25T02:55:57;1.33;;;1.15;;
49223;SDS011;35050;51.316;5.994;2022-08-25T02:58:24;1.48;;;1.38;;
49223;SDS011;35050;51.316;5.994;2022-08-25T03:00:50;1.55;;;1.40;;
49223;SDS011;35050;51.316;5.994;2022-08-25T03:03:17;1.40;;;1.30;;
49223;SDS011;35050;51.316;5.994;2022-08-25T03:05:43;1.58;;;1.40;;
49223;SDS011;35050;51.316;5.994;2022-08-25T03:08:10;1.77;;;1.42;;
49223;SDS011;35050;51.316;5.994;2022-08-25T03:10:36;2.28;;;1.60;;
49223;SDS011;35050;51.316;5.994;2022-08-25T03:13:01;3.45;;;1.65;;
49223;SDS011;35050;51.316;5.994;2022-08-25T03:15:27;1.83;;;1.45;;
49223;SDS011;35050;51.316;5.994;2022-08-25T03:17:53;4.80;;;1.80;;
49223;SDS011;35050;51.316;5.994;2022-08-25T03:20:20;3.13;;;1.50;;
49223;SDS011;35050;51.316;5.994;2022-08-25T03:22:47;2.03;;;1.42;;
49223;SDS011;35050;51.316;5.994;2022-08-25T03:25:13;1.50;;;1.40;;
49223;SDS011;35050;51.316;5.994;2022-08-25T03:27:57;3.45;;;1.25;;
49223;SDS011;35050;51.316;5.994;2022-08-25T03:30:24;2.30;;;1.58;;
49223;SDS011;35050;51.316;5.994;2022-08-25T03:32:50;2.72;;;1.45;;
49223;SDS011;35050;51.316;5.994;2022-08-25T03:35:16;1.77;;;1.50;;
49223;SDS011;35050;51.316;5.994;2022-08-25T03:37:42;2.95;;;1.50;;
49223;SDS011;35050;51.316;5.994;2022-08-25T03:40:08;1.70;;;1.55;;
49223;SDS011;35050;51.316;5.994;2022-08-25T03:42:39;2.50;;;1.58;;
49223;SDS011;35050;51.316;5.994;2022-08-25T03:45:06;1.83;;;1.48;;
49223;SDS011;35050;51.316;5.994;2022-08-25T03:47:32;1.70;;;1.42;;
49223;SDS011;35050;51.316;5.994;2022-08-25T03:49:58;2.88;;;1.60;;
49223;SDS011;35050;51.316;5.994;2022-08-25T03:52:24;1.83;;;1.70;;
49223;SDS011;35050;51.316;5.994;2022-08-25T03:54:49;1.63;;;1.40;;
49223;SDS011;35050;51.316;5.994;2022-08-25T03:57:15;3.30;;;1.60;;
49223;SDS011;35050;51.316;5.994;2022-08-25T03:59:41;1.88;;;1.20;;
49223;SDS011;35050;51.316;5.994;2022-08-25T04:02:07;1.60;;;1.45;;
49223;SDS011;35050;51.316;5.994;2022-08-25T04:04:32;1.30;;;1.20;;
49223;SDS011;35050;51.316;5.994;2022-08-25T04:06:59;3.10;;;1.58;;
49223;SDS011;35050;51.316;5.994;2022-08-25T04:09:25;1.75;;;1.30;;
49223;SDS011;35050;51.316;5.994;2022-08-25T04:11:50;1.55;;;1.20;;
49223;SDS011;35050;51.316;5.994;2022-08-25T04:14:16;1.80;;;1.50;;
49223;SDS011;35050;51.316;5.994;2022-08-25T04:16:43;1.90;;;1.20;;
49223;SDS011;35050;51.316;5.994;2022-08-25T04:19:09;3.60;;;1.50;;
49223;SDS011;35050;51.316;5.994;2022-08-25T04:21:36;1.60;;;1.50;;
49223;SDS011;35050;51.316;5.994;2022-08-25T04:24:03;3.05;;;1.50;;
49223;SDS011;35050;51.316;5.994;2022-08-25T04:26:31;2.45;;;1.42;;
49223;SDS011;35050;51.316;5.994;2022-08-25T04:28:59;1.45;;;1.30;;
49223;SDS011;35050;51.316;5.994;2022-08-25T04:31:27;2.08;;;1.58;;
49223;SDS011;35050;51.316;5.994;2022-08-25T04:33:53;1.30;;;1.13;;
49223;SDS011;35050;51.316;5.994;2022-08-25T04:36:19;2.03;;;1.50;;
49223;SDS011;35050;51.316;5.994;2022-08-25T04:38:45;1.90;;;1.45;;
49223;SDS011;35050;51.316;5.994;2022-08-25T04:41:13;1.00;;;0.95;;
49223;SDS011;35050;51.316;5.994;2022-08-25T04:43:41;1.35;;;1.25;;
49223;SDS011;35050;51.316;5.994;2022-08-25T04:46:12;2.05;;;1.25;;
49223;SDS011;35050;51.316;5.994;2022-08-25T04:48:40;1.40;;;1.30;;
49223;SDS011;35050;51.316;5.994;2022-08-25T04:51:07;1.52;;;1.20;;
49223;SDS011;35050;51.316;5.994;2022-08-25T04:53:35;1.38;;;1.23;;
49223;SDS011;35050;51.316;5.994;2022-08-25T04:56:04;1.65;;;1.10;;
49223;SDS011;35050;51.316;5.994;2022-08-25T04:58:30;1.23;;;1.13;;
49223;SDS011;35050;51.316;5.994;2022-08-25T05:01:03;1.52;;;1.35;;
49223;SDS011;35050;51.316;5.994;2022-08-25T05:03:30;1.42;;;1.33;;
49223;SDS011;35050;51.316;5.994;2022-08-25T05:05:56;1.10;;;1.00;;
49223;SDS011;35050;51.316;5.994;2022-08-25T05:08:22;1.23;;;1.13;;
49223;SDS011;35050;51.316;5.994;2022-08-25T05:10:48;1.65;;;1.27;;
49223;SDS011;35050;51.316;5.994;2022-08-25T05:13:14;2.30;;;1.20;;
49223;SDS011;35050;51.316;5.994;2022-08-25T05:15:40;1.88;;;1.40;;
49223;SDS011;35050;51.316;5.994;2022-08-25T05:18:19;1.25;;;1.15;;
49223;SDS011;35050;51.316;5.994;2022-08-25T05:20:46;1.40;;;1.23;;
49223;SDS011;35050;51.316;5.994;2022-08-25T05:23:12;1.17;;;1.08;;
49223;SDS011;35050;51.316;5.994;2022-08-25T05:25:37;1.52;;;1.08;;
49223;SDS011;35050;51.316;5.994;2022-08-25T05:28:03;1.17;;;1.08;;
49223;SDS011;35050;51.316;5.994;2022-08-25T05:30:29;1.30;;;1.20;;
49223;SDS011;35050;51.316;5.994;2022-08-25T05:32:55;2.33;;;1.20;;
49223;SDS011;35050;51.316;5.994;2022-08-25T05:35:21;1.10;;;1.00;;
49223;SDS011;35050;51.316;5.994;2022-08-25T05:37:47;3.03;;;1.30;;
49223;SDS011;35050;51.316;5.994;2022-08-25T05:40:13;2.08;;;1.25;;
49223;SDS011;35050;51.316;5.994;2022-08-25T05:42:38;2.03;;;1.17;;
49223;SDS011;35050;51.316;5.994;2022-08-25T05:45:05;0.80;;;0.80;;
49223;SDS011;35050;51.316;5.994;2022-08-25T05:47:32;1.27;;;1.17;;
49223;SDS011;35050;51.316;5.994;2022-08-25T05:49:58;1.50;;;1.40;;
49223;SDS011;35050;51.316;5.994;2022-08-25T05:52:25;1.45;;;1.15;;
49223;SDS011;35050;51.316;5.994;2022-08-25T05:54:51;1.50;;;1.25;;
49223;SDS011;35050;51.316;5.994;2022-08-25T05:57:18;1.17;;;1.10;;
49223;SDS011;35050;51.316;5.994;2022-08-25T05:59:43;1.02;;;1.02;;
49223;SDS011;35050;51.316;5.994;2022-08-25T06:02:09;1.70;;;1.15;;
49223;SDS011;35050;51.316;5.994;2022-08-25T06:04:53;3.05;;;1.20;;
49223;SDS011;35050;51.316;5.994;2022-08-25T06:07:19;2.42;;;0.90;;
49223;SDS011;35050;51.316;5.994;2022-08-25T06:09:45;2.70;;;1.38;;
49223;SDS011;35050;51.316;5.994;2022-08-25T06:12:12;1.83;;;1.10;;
49223;SDS011;35050;51.316;5.994;2022-08-25T06:14:39;2.30;;;1.00;;
49223;SDS011;35050;51.316;5.994;2022-08-25T06:17:04;3.22;;;1.17;;
49223;SDS011;35050;51.316;5.994;2022-08-25T06:19:30;2.05;;;1.05;;
49223;SDS011;35050;51.316;5.994;2022-08-25T06:21:56;2.58;;;1.33;;
49223;SDS011;35050;51.316;5.994;2022-08-25T06:24:23;1.08;;;1.00;;
49223;SDS011;35050;51.316;5.994;2022-08-25T06:26:50;1.23;;;1.13;;
49223;SDS011;35050;51.316;5.994;2022-08-25T06:29:15;1.77;;;1.20;;
49223;SDS011;35050;51.316;5.994;2022-08-25T06:31:42;1.20;;;1.10;;
49223;SDS011;35050;51.316;5.994;2022-08-25T06:34:08;2.15;;;1.30;;
49223;SDS011;35050;51.316;5.994;2022-08-25T06:36:34;1.30;;;1.20;;
49223;SDS011;35050;51.316;5.994;2022-08-25T06:39:00;1.98;;;1.10;;
49223;SDS011;35050;51.316;5.994;2022-08-25T06:41:25;1.73;;;1.05;;
49223;SDS011;35050;51.316;5.994;2022-08-25T06:43:56;2.35;;;1.33;;
49223;SDS011;35050;51.316;5.994;2022-08-25T06:46:23;1.63;;;1.10;;
49223;SDS011;35050;51.316;5.994;2022-08-25T06:48:51;1.75;;;1.30;;
49223;SDS011;35050;51.316;5.994;2022-08-25T06:51:18;1.55;;;1.20;;
49223;SDS011;35050;51.316;5.994;2022-08-25T06:53:46;2.00;;;1.15;;
49223;SDS011;35050;51.316;5.994;2022-08-25T06:56:18;2.05;;;1.30;;
49223;SDS011;35050;51.316;5.994;2022-08-25T06:58:46;1.30;;;1.20;;
49223;SDS011;35050;51.316;5.994;2022-08-25T07:01:19;2.80;;;1.10;;
49223;SDS011;35050;51.316;5.994;2022-08-25T07:03:50;1.50;;;1.20;;
49223;SDS011;35050;51.316;5.994;2022-08-25T07:06:18;1.38;;;1.00;;
49223;SDS011;35050;51.316;5.994;2022-08-25T07:08:45;1.42;;;1.30;;
49223;SDS011;35050;51.316;5.994;2022-08-25T07:11:12;3.03;;;2.00;;
49223;SDS011;35050;51.316;5.994;2022-08-25T07:13:41;2.08;;;1.27;;
49223;SDS011;35050;51.316;5.994;2022-08-25T07:16:07;1.67;;;1.40;;
49223;SDS011;35050;51.316;5.994;2022-08-25T07:18:35;2.22;;;1.50;;
49223;SDS011;35050;51.316;5.994;2022-08-25T07:21:01;1.33;;;1.13;;
49223;SDS011;35050;51.316;5.994;2022-08-25T07:23:26;1.50;;;1.40;;
49223;SDS011;35050;51.316;5.994;2022-08-25T07:25:52;1.63;;;1.40;;
49223;SDS011;35050;51.316;5.994;2022-08-25T07:28:20;2.38;;;1.13;;
49223;SDS011;35050;51.316;5.994;2022-08-25T07:30:46;1.77;;;1.38;;
49223;SDS011;35050;51.316;5.994;2022-08-25T07:33:13;1.20;;;1.10;;
49223;SDS011;35050;51.316;5.994;2022-08-25T07:35:38;2.17;;;1.38;;
49223;SDS011;35050;51.316;5.994;2022-08-25T07:38:05;3.35;;;1.17;;
49223;SDS011;35050;51.316;5.994;2022-08-25T07:40:32;1.85;;;1.40;;
49223;SDS011;35050;51.316;5.994;2022-08-25T07:43:01;2.88;;;1.40;;
49223;SDS011;35050;51.316;5.994;2022-08-25T07:45:30;2.25;;;1.45;;
49223;SDS011;35050;51.316;5.994;2022-08-25T07:47:57;1.25;;;1.15;;
49223;SDS011;35050;51.316;5.994;2022-08-25T07:50:26;2.05;;;1.13;;
49223;SDS011;35050;51.316;5.994;2022-08-25T07:52:54;3.03;;;1.48;;
49223;SDS011;35050;51.316;5.994;2022-08-25T07:55:22;2.13;;;1.38;;
49223;SDS011;35050;51.316;5.994;2022-08-25T07:57:49;2.50;;;1.63;;
49223;SDS011;35050;51.316;5.994;2022-08-25T08:00:16;3.40;;;1.60;;
49223;SDS011;35050;51.316;5.994;2022-08-25T08:02:42;2.17;;;1.50;;
49223;SDS011;35050;51.316;5.994;2022-08-25T08:05:09;1.63;;;1.50;;
49223;SDS011;35050;51.316;5.994;2022-08-25T08:07:36;1.70;;;1.58;;
49223;SDS011;35050;51.316;5.994;2022-08-25T08:10:03;1.38;;;1.27;;
49223;SDS011;35050;51.316;5.994;2022-08-25T08:12:30;1.45;;;1.23;;
49223;SDS011;35050;51.316;5.994;2022-08-25T08:14:57;3.25;;;1.45;;
49223;SDS011;35050;51.316;5.994;2022-08-25T08:17:23;1.33;;;1.20;;
49223;SDS011;35050;51.316;5.994;2022-08-25T08:19:49;2.08;;;1.23;;
49223;SDS011;35050;51.316;5.994;2022-08-25T08:22:14;2.22;;;1.50;;
49223;SDS011;35050;51.316;5.994;2022-08-25T08:24:41;3.08;;;1.38;;
49223;SDS011;35050;51.316;5.994;2022-08-25T08:27:08;2.53;;;1.75;;
49223;SDS011;35050;51.316;5.994;2022-08-25T08:29:35;1.42;;;1.33;;
49223;SDS011;35050;51.316;5.994;2022-08-25T08:32:06;1.88;;;1.42;;
49223;SDS011;35050;51.316;5.994;2022-08-25T08:34:36;3.92;;;1.40;;
49223;SDS011;35050;51.316;5.994;2022-08-25T08:37:02;1.90;;;1.63;;
49223;SDS011;35050;51.316;5.994;2022-08-25T08:39:28;2.25;;;1.52;;
49223;SDS011;35050;51.316;5.994;2022-08-25T08:53:08;1.50;;;1.40;;
49223;SDS011;35050;51.316;5.994;2022-08-25T08:55:47;1.92;;;1.67;;
49223;SDS011;35050;51.316;5.994;2022-08-25T09:00:45;2.55;;;1.75;;
49223;SDS011;35050;51.316;5.994;2022-08-25T09:03:16;2.42;;;1.50;;
49223;SDS011;35050;51.316;5.994;2022-08-25T09:05:48;3.35;;;1.60;;
49223;SDS011;35050;51.316;5.994;2022-08-25T09:08:16;4.53;;;1.60;;
49223;SDS011;35050;51.316;5.994;2022-08-25T09:13:23;1.70;;;1.48;;
49223;SDS011;35050;51.316;5.994;2022-08-25T09:16:15;2.03;;;1.35;;
49223;SDS011;35050;51.316;5.994;2022-08-25T09:19:27;3.03;;;1.70;;
49223;SDS011;35050;51.316;5.994;2022-08-25T09:27:36;1.77;;;1.67;;
49223;SDS011;35050;51.316;5.994;2022-08-25T09:30:22;2.05;;;1.42;;
49223;SDS011;35050;51.316;5.994;2022-08-25T09:32:52;3.20;;;1.48;;
49223;SDS011;35050;51.316;5.994;2022-08-25T09:35:29;2.83;;;1.30;;
49223;SDS011;35050;51.316;5.994;2022-08-25T09:37:57;1.55;;;1.27;;
49223;SDS011;35050;51.316;5.994;2022-08-25T09:40:25;1.27;;;1.13;;
49223;SDS011;35050;51.316;5.994;2022-08-25T09:42:57;2.00;;;1.30;;
49223;SDS011;35050;51.316;5.994;2022-08-25T09:45:41;2.40;;;1.52;;
49223;SDS011;35050;51.316;5.994;2022-08-25T09:51:29;2.20;;;1.50;;
49223;SDS011;35050;51.316;5.994;2022-08-25T10:01:47;2.15;;;1.67;;
49223;SDS011;35050;51.316;5.994;2022-08-25T10:04:52;2.58;;;1.55;;
49223;SDS011;35050;51.316;5.994;2022-08-25T10:10:03;1.52;;;1.30;;
49223;SDS011;35050;51.316;5.994;2022-08-25T10:12:41;2.33;;;1.55;;
49223;SDS011;35050;51.316;5.994;2022-08-25T10:21:06;1.80;;;1.70;;
49223;SDS011;35050;51.316;5.994;2022-08-25T10:23:37;2.72;;;1.92;;
49223;SDS011;35050;51.316;5.994;2022-08-25T10:26:31;2.53;;;1.90;;
49223;SDS011;35050;51.316;5.994;2022-08-25T10:32:22;3.13;;;1.98;;
49223;SDS011;35050;51.316;5.994;2022-08-25T10:34:55;2.28;;;1.88;;
49223;SDS011;35050;51.316;5.994;2022-08-25T10:40:27;2.15;;;1.63;;
49223;SDS011;35050;51.316;5.994;2022-08-25T10:43:06;2.75;;;1.90;;
49223;SDS011;35050;51.316;5.994;2022-08-25T10:51:28;1.77;;;1.42;;
49223;SDS011;35050;51.316;5.994;2022-08-25T10:57:21;3.78;;;1.75;;
49223;SDS011;35050;51.316;5.994;2022-08-25T10:59:59;2.22;;;1.52;;
49223;SDS011;35050;51.316;5.994;2022-08-25T11:05:23;2.00;;;1.80;;
49223;SDS011;35050;51.316;5.994;2022-08-25T11:08:15;3.67;;;2.00;;
49223;SDS011;35050;51.316;5.994;2022-08-25T11:11:25;2.58;;;1.85;;
49223;SDS011;35050;51.316;5.994;2022-08-25T11:14:17;2.28;;;1.95;;
49223;SDS011;35050;51.316;5.994;2022-08-25T11:16:50;2.00;;;1.65;;
49223;SDS011;35050;51.316;5.994;2022-08-25T11:19:40;4.75;;;1.70;;
49223;SDS011;35050;51.316;5.994;2022-08-25T11:22:19;2.00;;;1.80;;
49223;SDS011;35050;51.316;5.994;2022-08-25T11:30:19;4.88;;;1.95;;
49223;SDS011;35050;51.316;5.994;2022-08-25T11:32:52;1.60;;;1.50;;
49223;SDS011;35050;51.316;5.994;2022-08-25T11:35:25;2.67;;;1.67;;
49223;SDS011;35050;51.316;5.994;2022-08-25T11:38:32;1.60;;;1.50;;
49223;SDS011;35050;51.316;5.994;2022-08-25T11:43:53;1.80;;;1.50;;
49223;SDS011;35050;51.316;5.994;2022-08-25T11:57:38;1.35;;;1.25;;
49223;SDS011;35050;51.316;5.994;2022-08-25T12:00:06;1.40;;;1.30;;
49223;SDS011;35050;51.316;5.994;2022-08-25T12:02:40;2.22;;;1.40;;
49223;SDS011;35050;51.316;5.994;2022-08-25T12:10:17;1.50;;;1.40;;
49223;SDS011;35050;51.316;5.994;2022-08-25T12:18:06;1.30;;;1.20;;
49223;SDS011;35050;51.316;5.994;2022-08-25T12:24:03;3.65;;;1.25;;
49223;SDS011;35050;51.316;5.994;2022-08-25T12:29:23;1.10;;;1.10;;
49223;SDS011;35050;51.316;5.994;2022-08-25T12:37:13;1.05;;;1.05;;
49223;SDS011;35050;51.316;5.994;2022-08-25T12:47:43;1.10;;;1.00;;
49223;SDS011;35050;51.316;5.994;2022-08-25T12:52:58;1.58;;;1.20;;
49223;SDS011;35050;51.316;5.994;2022-08-25T12:55:49;1.17;;;1.00;;
49223;SDS011;35050;51.316;5.994;2022-08-25T12:58:18;1.20;;;1.10;;
49223;SDS011;35050;51.316;5.994;2022-08-25T13:00:47;1.00;;;1.00;;
49223;SDS011;35050;51.316;5.994;2022-08-25T13:06:52;1.05;;;1.02;;
49223;SDS011;35050;51.316;5.994;2022-08-25T13:12:53;2.08;;;1.13;;
49223;SDS011;35050;51.316;5.994;2022-08-25T13:15:10;0.70;;;0.70;;
49223;SDS011;35050;51.316;5.994;2022-08-25T13:17:49;1.00;;;0.90;;
49223;SDS011;35050;51.316;5.994;2022-08-25T13:22:48;0.90;;;0.85;;
49223;SDS011;35050;51.316;5.994;2022-08-25T13:25:23;0.85;;;0.80;;
49223;SDS011;35050;51.316;5.994;2022-08-25T13:27:52;1.13;;;1.00;;
49223;SDS011;35050;51.316;5.994;2022-08-25T13:30:31;0.80;;;0.80;;
49223;SDS011;35050;51.316;5.994;2022-08-25T13:33:17;2.53;;;0.80;;
49223;SDS011;35050;51.316;5.994;2022-08-25T13:35:52;0.95;;;0.82;;
49223;SDS011;35050;51.316;5.994;2022-08-25T13:38:39;1.33;;;1.00;;
49223;SDS011;35050;51.316;5.994;2022-08-25T13:41:06;1.77;;;1.00;;
49223;SDS011;35050;51.316;5.994;2022-08-25T13:43:33;2.60;;;0.93;;
49223;SDS011;35050;51.316;5.994;2022-08-25T13:46:00;1.15;;;1.00;;
49223;SDS011;35050;51.316;5.994;2022-08-25T13:48:35;2.45;;;0.85;;
49223;SDS011;35050;51.316;5.994;2022-08-25T13:51:25;1.10;;;1.10;;
49223;SDS011;35050;51.316;5.994;2022-08-25T13:53:54;1.48;;;1.00;;
49223;SDS011;35050;51.316;5.994;2022-08-25T13:56:40;1.38;;;1.20;;
49223;SDS011;35050;51.316;5.994;2022-08-25T13:59:23;1.30;;;1.20;;
49223;SDS011;35050;51.316;5.994;2022-08-25T14:01:51;1.13;;;1.02;;
49223;SDS011;35050;51.316;5.994;2022-08-25T14:06:44;1.10;;;1.00;;
49223;SDS011;35050;51.316;5.994;2022-08-25T14:09:12;1.08;;;0.90;;
49223;SDS011;35050;51.316;5.994;2022-08-25T14:16:52;1.10;;;1.00;;
49223;SDS011;35050;51.316;5.994;2022-08-25T14:19:23;2.65;;;1.00;;
49223;SDS011;35050;51.316;5.994;2022-08-25T14:21:50;1.77;;;0.85;;
49223;SDS011;35050;51.316;5.994;2022-08-25T14:24:18;2.17;;;0.80;;
49223;SDS011;35050;51.316;5.994;2022-08-25T14:26:46;1.05;;;0.98;;
49223;SDS011;35050;51.316;5.994;2022-08-25T14:29:13;1.17;;;0.77;;
49223;SDS011;35050;51.316;5.994;2022-08-25T14:31:40;2.17;;;0.90;;
49223;SDS011;35050;51.316;5.994;2022-08-25T14:34:09;0.80;;;0.80;;
49223;SDS011;35050;51.316;5.994;2022-08-25T14:36:38;1.00;;;0.90;;
49223;SDS011;35050;51.316;5.994;2022-08-25T14:39:05;2.00;;;0.90;;
49223;SDS011;35050;51.316;5.994;2022-08-25T14:41:32;0.80;;;0.80;;
49223;SDS011;35050;51.316;5.994;2022-08-25T14:44:00;0.88;;;0.88;;
49223;SDS011;35050;51.316;5.994;2022-08-25T14:46:27;1.30;;;1.17;;
49223;SDS011;35050;51.316;5.994;2022-08-25T14:48:59;0.95;;;0.80;;
49223;SDS011;35050;51.316;5.994;2022-08-25T14:51:28;0.85;;;0.82;;
49223;SDS011;35050;51.316;5.994;2022-08-25T14:53:58;0.80;;;0.80;;
49223;SDS011;35050;51.316;5.994;2022-08-25T14:56:26;2.05;;;0.70;;
49223;SDS011;35050;51.316;5.994;2022-08-25T14:58:53;0.90;;;0.90;;
49223;SDS011;35050;51.316;5.994;2022-08-25T15:01:20;0.73;;;0.73;;
49223;SDS011;35050;51.316;5.994;2022-08-25T15:03:47;0.90;;;0.90;;
49223;SDS011;35050;51.316;5.994;2022-08-25T15:06:16;1.45;;;1.00;;
49223;SDS011;35050;51.316;5.994;2022-08-25T15:08:42;0.90;;;0.70;;
49223;SDS011;35050;51.316;5.994;2022-08-25T15:11:28;0.75;;;0.75;;
49223;SDS011;35050;51.316;5.994;2022-08-25T15:13:54;1.08;;;0.80;;
49223;SDS011;35050;51.316;5.994;2022-08-25T15:16:26;1.08;;;0.98;;
49223;SDS011;35050;51.316;5.994;2022-08-25T15:19:00;2.72;;;1.02;;
49223;SDS011;35050;51.316;5.994;2022-08-25T15:21:28;1.10;;;0.93;;
49223;SDS011;35050;51.316;5.994;2022-08-25T15:23:55;0.93;;;0.80;;
49223;SDS011;35050;51.316;5.994;2022-08-25T15:26:21;0.80;;;0.80;;
49223;SDS011;35050;51.316;5.994;2022-08-25T15:28:48;1.27;;;0.80;;
49223;SDS011;35050;51.316;5.994;2022-08-25T15:31:15;0.70;;;0.70;;
49223;SDS011;35050;51.316;5.994;2022-08-25T15:33:42;0.60;;;0.60;;
49223;SDS011;35050;51.316;5.994;2022-08-25T15:36:09;0.65;;;0.65;;
49223;SDS011;35050;51.316;5.994;2022-08-25T15:38:37;1.00;;;0.90;;
49223;SDS011;35050;51.316;5.994;2022-08-25T15:41:05;0.80;;;0.80;;
49223;SDS011;35050;51.316;5.994;2022-08-25T15:43:32;0.80;;;0.80;;
49223;SDS011;35050;51.316;5.994;2022-08-25T15:45:58;0.80;;;0.80;;
49223;SDS011;35050;51.316;5.994;2022-08-25T15:48:24;0.60;;;0.60;;
49223;SDS011;35050;51.316;5.994;2022-08-25T15:50:53;0.80;;;0.80;;
49223;SDS011;35050;51.316;5.994;2022-08-25T15:53:21;0.82;;;0.82;;
49223;SDS011;35050;51.316;5.994;2022-08-25T15:55:47;0.75;;;0.75;;
49223;SDS011;35050;51.316;5.994;2022-08-25T15:58:14;0.90;;;0.80;;
49223;SDS011;35050;51.316;5.994;2022-08-25T16:00:41;0.70;;;0.70;;
49223;SDS011;35050;51.316;5.994;2022-08-25T16:03:08;0.60;;;0.60;;
49223;SDS011;35050;51.316;5.994;2022-08-25T16:05:43;1.00;;;0.90;;
49223;SDS011;35050;51.316;5.994;2022-08-25T16:08:09;1.17;;;0.93;;
49223;SDS011;35050;51.316;5.994;2022-08-25T16:10:36;0.90;;;0.90;;
49223;SDS011;35050;51.316;5.994;2022-08-25T16:13:04;0.75;;;0.75;;
49223;SDS011;35050;51.316;5.994;2022-08-25T16:15:30;1.33;;;0.90;;
49223;SDS011;35050;51.316;5.994;2022-08-25T16:17:57;2.25;;;1.02;;
49223;SDS011;35050;51.316;5.994;2022-08-25T16:20:27;1.23;;;0.82;;
49223;SDS011;35050;51.316;5.994;2022-08-25T16:22:54;2.50;;;1.10;;
49223;SDS011;35050;51.316;5.994;2022-08-25T16:25:20;1.00;;;0.80;;
49223;SDS011;35050;51.316;5.994;2022-08-25T16:27:45;1.52;;;1.02;;
49223;SDS011;35050;51.316;5.994;2022-08-25T16:30:11;0.90;;;0.82;;
49223;SDS011;35050;51.316;5.994;2022-08-25T16:32:37;1.27;;;1.00;;
49223;SDS011;35050;51.316;5.994;2022-08-25T16:35:04;1.50;;;1.08;;
49223;SDS011;35050;51.316;5.994;2022-08-25T16:37:31;1.10;;;1.00;;
49223;SDS011;35050;51.316;5.994;2022-08-25T16:39:58;1.33;;;0.88;;
49223;SDS011;35050;51.316;5.994;2022-08-25T16:42:23;2.47;;;1.15;;
49223;SDS011;35050;51.316;5.994;2022-08-25T16:44:50;0.95;;;0.88;;
49223;SDS011;35050;51.316;5.994;2022-08-25T16:47:16;1.13;;;0.85;;
49223;SDS011;35050;51.316;5.994;2022-08-25T16:49:41;1.30;;;0.77;;
49223;SDS011;35050;51.316;5.994;2022-08-25T16:52:07;1.60;;;0.90;;
49223;SDS011;35050;51.316;5.994;2022-08-25T16:54:53;1.13;;;1.00;;
49223;SDS011;35050;51.316;5.994;2022-08-25T16:57:40;1.15;;;0.80;;
49223;SDS011;35050;51.316;5.994;2022-08-25T17:00:08;0.95;;;0.68;;
49223;SDS011;35050;51.316;5.994;2022-08-25T17:02:39;1.17;;;0.90;;
49223;SDS011;35050;51.316;5.994;2022-08-25T17:05:06;0.82;;;0.82;;
49223;SDS011;35050;51.316;5.994;2022-08-25T17:07:33;1.35;;;0.80;;
49223;SDS011;35050;51.316;5.994;2022-08-25T17:10:00;0.70;;;0.70;;
49223;SDS011;35050;51.316;5.994;2022-08-25T17:12:28;2.15;;;0.80;;